Time;durP1;ratioP1;P1;durP2;ratioP2;P2;SDS_P1;SDS_P2;PMS_P1;PMS_P2;Temp;Humidity;BMP_temperature;BMP_pressure;BME280_temperature;BME280_humidity;BME280_pressure;Samples;Min_cycle;Max_cycle;Signal;HPM_P1;HPM_P2
2022/01/15 00:00:02;;;;;;;6.65;4.80;;;6.70;99.90;;;;;;5049760;28;20040;-74
2022/01/15 00:02:28;;;;;;;12.13;5.90;;;6.70;99.90;;;;;;5074400;28;20079;-72
2022/01/15 00:04:53;;;;;;;7.47;5.30;;;6.70;99.90;;;;;;5074387;28;20134;-74
2022/01/15 00:07:19;;;;;;;7.68;4.85;;;6.70;99.90;;;;;;5075066;28;20075;-72
2022/01/15 00:09:49;;;;;;;7.03;5.15;;;6.70;99.90;;;;;;5074020;28;20032;-73
2022/01/15 00:12:15;;;;;;;6.22;4.55;;;6.70;99.90;;;;;;5074669;28;20119;-73
2022/01/15 00:14:42;;;;;;;7.22;5.35;;;6.70;99.90;;;;;;5074433;28;20103;-73
2022/01/15 00:17:18;;;;;;;9.18;5.07;;;6.70;99.90;;;;;;5074866;28;20048;-73
2022/01/15 00:19:43;;;;;;;8.75;5.22;;;6.70;99.90;;;;;;5057495;28;20086;-73
2022/01/15 00:22:15;;;;;;;10.73;6.20;;;6.70;99.90;;;;;;5073962;28;20493;-73
2022/01/15 00:24:41;;;;;;;10.45;5.47;;;6.70;99.90;;;;;;5092874;28;20040;-73
2022/01/15 00:27:07;;;;;;;8.00;5.65;;;6.70;99.90;;;;;;5074750;28;20051;-72
2022/01/15 00:29:32;;;;;;;9.95;5.80;;;6.60;99.90;;;;;;5073693;28;20813;-75
2022/01/15 00:32:00;;;;;;;10.73;6.35;;;6.70;99.90;;;;;;5074329;28;20142;-73
2022/01/15 00:34:27;;;;;;;13.73;6.43;;;6.70;99.90;;;;;;5074640;28;20446;-73
2022/01/15 00:36:52;;;;;;;14.07;6.93;;;6.60;99.90;;;;;;5073719;28;20487;-73
2022/01/15 00:39:18;;;;;;;14.30;7.03;;;6.60;99.90;;;;;;5074127;28;20055;-74
2022/01/15 00:41:43;;;;;;;13.73;6.90;;;6.70;99.90;;;;;;5074563;28;20044;-73
2022/01/15 00:44:09;;;;;;;11.50;6.47;;;6.70;99.90;;;;;;5046798;28;20100;-73
2022/01/15 00:46:35;;;;;;;8.43;5.55;;;6.60;99.90;;;;;;5074491;28;20052;-74
2022/01/15 00:49:00;;;;;;;9.45;6.63;;;6.60;99.90;;;;;;5074062;28;20047;-73
2022/01/15 00:51:26;;;;;;;15.35;6.80;;;6.60;99.90;;;;;;5073219;28;20464;-73
2022/01/15 00:53:52;;;;;;;16.50;7.50;;;6.60;99.90;;;;;;5056960;28;20080;-69
2022/01/15 00:56:17;;;;;;;10.73;7.30;;;6.60;99.90;;;;;;5057223;28;20494;-69
2022/01/15 00:58:43;;;;;;;8.68;7.05;;;6.60;99.90;;;;;;5090898;28;20051;-73
2022/01/15 01:01:08;;;;;;;12.80;8.10;;;6.60;99.90;;;;;;5092425;28;20051;-74
2022/01/15 01:03:34;;;;;;;12.27;7.47;;;6.60;99.90;;;;;;5063563;28;20091;-69
2022/01/15 01:06:00;;;;;;;14.75;7.75;;;6.60;99.90;;;;;;5073236;28;20040;-74
2022/01/15 01:08:25;;;;;;;9.52;6.35;;;6.60;99.90;;;;;;5073922;28;20135;-75
2022/01/15 01:10:55;;;;;;;10.82;6.53;;;6.60;99.90;;;;;;5091044;28;20502;-74
2022/01/15 01:23:44;;;;;;;8.00;5.75;;;6.60;99.90;;;;;;5073481;28;20552;-73
2022/01/15 01:26:26;;;;;;;10.20;6.20;;;6.60;99.90;;;;;;5072982;28;20134;-73
2022/01/15 01:29:06;;;;;;;10.77;7.05;;;6.60;99.90;;;;;;5073304;28;20047;-73
2022/01/15 01:31:38;;;;;;;13.98;6.93;;;6.60;99.90;;;;;;5073069;28;20055;-73
2022/01/15 01:34:11;;;;;;;13.65;6.97;;;6.60;99.90;;;;;;5072880;28;20125;-72
2022/01/15 01:36:45;;;;;;;9.27;5.95;;;6.50;99.90;;;;;;5073614;28;20040;-73
2022/01/15 01:39:17;;;;;;;13.98;6.32;;;6.60;99.90;;;;;;5043751;28;20139;-73
2022/01/15 01:41:53;;;;;;;6.78;4.53;;;6.50;99.90;;;;;;5072825;28;20055;-73
2022/01/15 01:44:23;;;;;;;10.70;6.22;;;6.50;99.90;;;;;;5073442;28;20097;-73
2022/01/15 01:46:53;;;;;;;4.07;2.90;;;6.50;99.90;;;;;;5059664;28;20041;-73
2022/01/15 01:49:19;;;;;;;7.75;4.93;;;6.60;99.90;;;;;;5036942;28;20055;-73
2022/01/15 01:51:45;;;;;;;5.20;4.20;;;6.50;99.90;;;;;;5054682;28;20040;-72
2022/01/15 01:54:13;;;;;;;5.88;4.05;;;6.50;99.90;;;;;;5072670;28;20098;-72
2022/01/15 01:56:39;;;;;;;7.57;4.85;;;6.60;99.90;;;;;;5072576;28;20079;-72
2022/01/15 01:59:06;;;;;;;6.80;4.28;;;6.50;99.90;;;;;;5073498;28;20075;-72
2022/01/15 02:01:32;;;;;;;7.22;4.32;;;6.50;99.90;;;;;;5071952;28;20036;-71
2022/01/15 02:03:58;;;;;;;5.60;4.28;;;6.50;99.90;;;;;;5072817;28;20385;-72
2022/01/15 02:06:24;;;;;;;8.82;5.00;;;6.50;99.90;;;;;;5072803;28;20404;-72
2022/01/15 02:08:50;;;;;;;8.10;5.07;;;6.50;99.90;;;;;;5043216;28;20055;-72
2022/01/15 02:11:16;;;;;;;7.43;4.28;;;6.50;99.90;;;;;;5060292;28;20055;-71
2022/01/15 02:13:45;;;;;;;6.50;4.15;;;6.50;99.90;;;;;;5072548;28;20044;-71
2022/01/15 02:16:12;;;;;;;6.53;4.85;;;6.50;99.90;;;;;;5072068;28;20051;-74
2022/01/15 02:18:38;;;;;;;7.40;4.75;;;6.50;99.90;;;;;;5072622;28;20051;-74
2022/01/15 02:23:46;;;;;;;7.32;4.97;;;6.50;99.90;;;;;;5072427;28;20039;-74
2022/01/15 02:26:20;;;;;;;10.13;5.45;;;6.50;99.90;;;;;;5073155;28;20048;-73
2022/01/15 02:28:52;;;;;;;6.55;5.03;;;6.50;99.90;;;;;;5071649;28;20048;-71
2022/01/15 02:31:18;;;;;;;6.85;4.72;;;6.50;99.90;;;;;;5055821;28;20042;-71
2022/01/15 02:33:46;;;;;;;7.90;4.75;;;6.50;99.90;;;;;;5055274;28;20048;-71
2022/01/15 02:36:15;;;;;;;10.48;5.38;;;6.50;99.90;;;;;;5072404;28;20044;-72
2022/01/15 02:38:42;;;;;;;7.57;4.78;;;6.50;99.90;;;;;;5072156;28;20044;-73
2022/01/15 02:41:08;;;;;;;13.55;5.68;;;6.50;99.90;;;;;;5072907;28;20468;-71
2022/01/15 02:43:35;;;;;;;11.40;6.07;;;6.50;99.90;;;;;;5074093;28;20036;-71
2022/01/15 02:48:51;;;;;;;9.15;5.10;;;6.50;99.90;;;;;;5076025;28;20420;-69
2022/01/15 02:51:18;;;;;;;8.13;4.97;;;6.50;99.90;;;;;;5048656;28;20123;-74
2022/01/15 02:53:44;;;;;;;7.95;4.60;;;6.50;99.90;;;;;;5058600;28;20047;-74
2022/01/15 02:56:10;;;;;;;7.03;4.10;;;6.50;99.90;;;;;;5059610;28;20040;-73
2022/01/15 02:58:36;;;;;;;5.40;3.78;;;6.50;99.90;;;;;;5054472;28;20211;-72
2022/01/15 03:01:02;;;;;;;6.38;3.40;;;6.50;99.90;;;;;;5076075;28;20513;-73
2022/01/15 03:03:28;;;;;;;7.45;3.72;;;6.50;99.90;;;;;;5075048;28;20123;-72
2022/01/15 03:05:54;;;;;;;6.32;3.40;;;6.50;99.90;;;;;;5076039;28;20142;-73
2022/01/15 03:08:19;;;;;;;6.50;3.30;;;6.40;99.90;;;;;;5059648;28;20097;-73
2022/01/15 03:10:46;;;;;;;6.25;3.70;;;6.50;99.90;;;;;;5074904;28;20055;-73
2022/01/15 03:13:13;;;;;;;6.35;4.07;;;6.40;99.90;;;;;;5076143;28;20047;-72
2022/01/15 03:15:40;;;;;;;5.03;3.30;;;6.40;99.90;;;;;;5075632;28;20040;-72
2022/01/15 03:18:06;;;;;;;5.68;3.00;;;6.40;99.90;;;;;;5075131;28;20063;-73
2022/01/15 03:20:32;;;;;;;6.07;3.42;;;6.40;99.90;;;;;;5075447;28;20040;-73
2022/01/15 03:22:58;;;;;;;6.18;3.67;;;6.40;99.90;;;;;;5056279;28;20500;-74
2022/01/15 03:25:24;;;;;;;6.70;4.15;;;6.40;99.90;;;;;;5074154;28;20046;-73
2022/01/15 03:27:49;;;;;;;5.03;3.38;;;6.40;99.90;;;;;;5057120;28;20047;-72
2022/01/15 03:30:15;;;;;;;7.70;3.85;;;6.40;99.90;;;;;;5075574;28;20036;-71
2022/01/15 03:32:44;;;;;;;6.07;3.53;;;6.40;99.90;;;;;;5041640;28;20043;-72
2022/01/15 03:35:12;;;;;;;5.53;3.28;;;6.40;99.90;;;;;;5071747;28;20427;-72
2022/01/15 03:37:38;;;;;;;7.90;3.67;;;6.40;99.90;;;;;;5043279;28;20788;-69
2022/01/15 03:40:06;;;;;;;8.80;3.85;;;6.40;99.90;;;;;;5069640;28;20040;-71
2022/01/15 03:42:32;;;;;;;4.78;2.58;;;6.40;99.90;;;;;;5060936;28;20099;-74
2022/01/15 03:44:57;;;;;;;5.40;2.97;;;6.40;99.90;;;;;;5068240;28;20755;-74
2022/01/15 03:47:23;;;;;;;3.45;2.28;;;6.40;99.90;;;;;;5074323;28;20101;-75
2022/01/15 03:49:49;;;;;;;4.40;2.28;;;6.40;99.90;;;;;;5075242;28;20048;-76
2022/01/15 03:52:14;;;;;;;4.32;2.38;;;6.40;99.90;;;;;;5075153;28;20040;-75
2022/01/15 03:54:40;;;;;;;3.63;2.17;;;6.40;99.90;;;;;;5073103;28;20044;-73
2022/01/15 03:57:06;;;;;;;6.70;2.30;;;6.40;99.90;;;;;;5075499;28;20118;-72
2022/01/15 03:59:33;;;;;;;3.55;2.42;;;6.40;99.90;;;;;;5058159;28;20502;-73
2022/01/15 04:01:59;;;;;;;4.10;2.15;;;6.40;99.90;;;;;;5075189;28;20051;-73
2022/01/15 04:04:24;;;;;;;3.22;2.08;;;6.40;99.90;;;;;;5074783;28;20054;-71
2022/01/15 04:06:50;;;;;;;6.65;2.90;;;6.40;99.90;;;;;;5074755;28;20036;-73
2022/01/15 04:09:17;;;;;;;5.03;2.03;;;6.30;99.90;;;;;;5057536;28;20542;-72
2022/01/15 04:11:44;;;;;;;5.10;2.33;;;6.30;99.90;;;;;;5056701;28;20040;-73
2022/01/15 04:14:09;;;;;;;3.15;1.90;;;6.30;99.90;;;;;;5074092;28;20044;-73
2022/01/15 04:16:35;;;;;;;4.05;2.22;;;6.30;99.90;;;;;;5074602;28;20550;-73
2022/01/15 04:19:01;;;;;;;5.30;2.88;;;6.30;99.90;;;;;;5074303;28;20043;-73
2022/01/15 04:21:27;;;;;;;3.65;2.20;;;6.30;99.90;;;;;;5074123;28;20358;-72
2022/01/15 04:23:53;;;;;;;3.47;1.92;;;6.30;99.90;;;;;;5092968;28;20127;-73
2022/01/15 04:26:24;;;;;;;3.20;1.80;;;6.30;99.90;;;;;;5074205;28;20039;-73
2022/01/15 04:28:51;;;;;;;3.53;1.73;;;6.30;99.90;;;;;;5073871;28;20059;-73
2022/01/15 04:31:17;;;;;;;4.38;1.85;;;6.30;99.90;;;;;;5074601;28;20048;-73
2022/01/15 04:33:43;;;;;;;4.55;1.80;;;6.20;99.90;;;;;;5074446;28;20457;-73
2022/01/15 04:36:09;;;;;;;5.70;1.95;;;6.30;99.90;;;;;;5071094;28;20610;-73
2022/01/15 04:38:38;;;;;;;4.05;2.03;;;6.30;99.90;;;;;;5074600;28;20127;-73
2022/01/15 04:41:05;;;;;;;3.10;1.60;;;6.30;99.90;;;;;;5074675;28;20109;-73
2022/01/15 04:43:30;;;;;;;2.80;1.55;;;6.30;99.90;;;;;;5073341;28;20511;-72
2022/01/15 04:45:56;;;;;;;3.65;2.15;;;6.30;99.90;;;;;;5084848;28;20064;-73
2022/01/15 04:48:22;;;;;;;3.03;1.50;;;6.30;99.90;;;;;;5090170;28;20059;-73
2022/01/15 04:50:48;;;;;;;3.63;1.80;;;6.20;99.90;;;;;;5072840;28;20135;-73
2022/01/15 04:53:14;;;;;;;4.25;2.28;;;6.20;99.90;;;;;;5073646;28;20048;-73
2022/01/15 04:55:40;;;;;;;4.05;2.40;;;6.20;99.90;;;;;;5074328;28;20119;-73
2022/01/15 04:58:06;;;;;;;3.25;1.85;;;6.20;99.90;;;;;;5056558;28;20058;-73
2022/01/15 05:00:32;;;;;;;4.95;2.20;;;6.20;99.90;;;;;;5057011;28;20040;-73
2022/01/15 05:02:58;;;;;;;5.82;2.25;;;6.20;99.90;;;;;;5055450;28;20620;-73
2022/01/15 05:05:25;;;;;;;4.38;1.95;;;6.20;99.90;;;;;;5073743;28;20043;-73
2022/01/15 05:07:53;;;;;;;3.03;1.88;;;6.20;99.90;;;;;;5073826;28;20048;-73
2022/01/15 05:10:23;;;;;;;3.08;1.52;;;6.20;99.90;;;;;;5073030;28;20411;-73
2022/01/15 05:12:49;;;;;;;3.85;1.83;;;6.20;99.90;;;;;;5056593;28;20036;-72
2022/01/15 05:15:18;;;;;;;4.90;1.58;;;6.20;99.90;;;;;;5037705;28;20063;-73
2022/01/15 05:17:45;;;;;;;2.95;1.45;;;6.20;99.90;;;;;;5060964;28;20476;-71
2022/01/15 05:20:12;;;;;;;2.92;1.38;;;6.20;99.90;;;;;;5073479;28;20050;-73
2022/01/15 05:22:38;;;;;;;3.70;1.70;;;6.20;99.90;;;;;;5073741;28;20054;-73
2022/01/15 05:25:07;;;;;;;2.15;1.05;;;6.10;99.90;;;;;;5037109;28;20086;-73
2022/01/15 05:27:36;;;;;;;4.15;1.85;;;6.10;99.90;;;;;;5059281;28;20491;-73
2022/01/15 05:30:05;;;;;;;3.20;1.52;;;6.10;99.90;;;;;;5073396;28;20043;-74
2022/01/15 05:32:31;;;;;;;3.40;1.38;;;6.10;99.90;;;;;;5072794;28;20075;-74
2022/01/15 05:34:57;;;;;;;2.78;1.45;;;6.10;99.90;;;;;;5056480;28;20082;-73
2022/01/15 05:37:26;;;;;;;4.60;1.95;;;6.10;99.90;;;;;;5073220;28;20047;-73
2022/01/15 05:39:52;;;;;;;4.25;1.52;;;6.10;99.90;;;;;;5071910;28;20044;-74
2022/01/15 05:42:18;;;;;;;3.13;1.83;;;6.10;99.90;;;;;;5073042;28;20127;-74
2022/01/15 05:44:44;;;;;;;2.63;1.80;;;6.00;99.90;;;;;;5072855;28;20078;-75
2022/01/15 05:47:10;;;;;;;3.03;1.30;;;6.00;99.90;;;;;;5071978;28;20405;-73
2022/01/15 05:49:36;;;;;;;2.88;1.60;;;6.00;99.90;;;;;;5056839;28;20052;-73
2022/01/15 05:52:02;;;;;;;2.60;1.60;;;6.00;99.90;;;;;;5072910;28;20050;-72
2022/01/15 05:54:28;;;;;;;3.90;1.65;;;6.00;99.90;;;;;;5072307;28;20063;-75
2022/01/15 05:56:54;;;;;;;3.63;1.17;;;6.00;99.90;;;;;;5072620;28;20036;-74
2022/01/15 05:59:20;;;;;;;3.60;1.88;;;6.00;99.90;;;;;;5072936;28;20374;-75
2022/01/15 06:01:45;;;;;;;4.15;1.67;;;5.90;99.90;;;;;;5072653;28;20508;-74
2022/01/15 06:04:11;;;;;;;2.70;1.48;;;5.90;99.90;;;;;;5072918;28;20050;-75
2022/01/15 06:06:37;;;;;;;3.28;1.48;;;5.80;99.90;;;;;;5072074;28;20048;-74
2022/01/15 06:09:03;;;;;;;3.50;1.75;;;5.90;99.90;;;;;;5056239;28;20040;-76
2022/01/15 06:11:29;;;;;;;3.70;2.10;;;5.80;99.90;;;;;;5073112;28;20052;-75
2022/01/15 06:13:55;;;;;;;4.53;2.17;;;5.80;99.90;;;;;;5071525;28;20059;-75
2022/01/15 06:16:21;;;;;;;3.17;1.73;;;5.80;99.90;;;;;;5055694;28;20086;-75
2022/01/15 06:18:46;;;;;;;2.88;2.03;;;5.80;99.90;;;;;;5072228;28;20048;-74
2022/01/15 06:21:12;;;;;;;4.10;2.45;;;5.70;99.90;;;;;;5072050;28;20115;-74
2022/01/15 06:23:39;;;;;;;3.28;1.80;;;5.80;99.90;;;;;;5073043;28;20117;-74
2022/01/15 06:26:04;;;;;;;3.47;1.73;;;5.70;99.90;;;;;;5073158;28;20127;-73
2022/01/15 06:28:30;;;;;;;3.30;1.90;;;5.70;99.90;;;;;;5042002;28;20464;-74
2022/01/15 06:30:56;;;;;;;3.00;1.77;;;5.70;99.90;;;;;;5043884;28;20048;-72
2022/01/15 06:33:21;;;;;;;3.53;1.80;;;5.70;99.90;;;;;;5055916;28;20400;-76
2022/01/15 06:35:47;;;;;;;2.40;1.60;;;5.70;99.90;;;;;;5054973;28;20040;-75
2022/01/15 06:38:13;;;;;;;3.75;2.00;;;5.70;99.90;;;;;;5072433;28;20048;-75
2022/01/15 06:40:38;;;;;;;3.58;1.95;;;5.70;99.90;;;;;;5072825;28;20051;-74
2022/01/15 06:43:05;;;;;;;3.67;2.20;;;5.70;99.90;;;;;;5048906;28;20066;-73
2022/01/15 06:45:33;;;;;;;4.20;2.53;;;5.70;99.90;;;;;;5071909;28;20531;-74
2022/01/15 06:47:58;;;;;;;4.22;3.03;;;5.70;99.90;;;;;;5072341;28;20090;-73
2022/01/15 06:50:25;;;;;;;5.05;3.00;;;5.70;99.90;;;;;;5071881;28;20066;-74
2022/01/15 06:52:51;;;;;;;4.50;2.35;;;5.70;99.90;;;;;;5072635;28;20407;-74
2022/01/15 06:55:17;;;;;;;5.03;2.88;;;5.70;99.90;;;;;;5072770;28;20044;-70
2022/01/15 06:57:43;;;;;;;3.83;2.10;;;5.60;99.90;;;;;;5071406;28;20058;-75
2022/01/15 07:00:11;;;;;;;2.92;1.80;;;5.60;99.90;;;;;;5072896;28;20506;-73
2022/01/15 07:02:38;;;;;;;2.78;1.73;;;5.60;99.90;;;;;;5040224;28;20050;-68
2022/01/15 07:05:06;;;;;;;3.92;1.83;;;5.60;99.90;;;;;;5073179;28;20466;-72
2022/01/15 07:07:32;;;;;;;4.03;1.60;;;5.60;99.90;;;;;;5057411;28;20704;-72
2022/01/15 07:09:58;;;;;;;3.15;1.77;;;5.50;99.90;;;;;;5071319;28;20567;-72
2022/01/15 07:12:24;;;;;;;3.10;1.80;;;5.50;99.90;;;;;;5055288;28;20127;-73
2022/01/15 07:14:50;;;;;;;3.95;2.58;;;5.50;99.90;;;;;;5072235;28;20123;-72
2022/01/15 07:17:16;;;;;;;4.65;2.92;;;5.50;99.90;;;;;;5071662;28;20082;-73
2022/01/15 07:19:42;;;;;;;4.70;3.03;;;5.50;99.90;;;;;;5072083;28;20051;-75
2022/01/15 07:22:08;;;;;;;5.50;3.53;;;5.50;99.90;;;;;;5056324;28;20043;-75
2022/01/15 07:24:33;;;;;;;6.18;3.47;;;5.50;99.90;;;;;;5071080;28;20126;-73
2022/01/15 07:26:59;;;;;;;5.90;3.22;;;5.50;99.90;;;;;;5072019;28;20115;-73
2022/01/15 07:29:25;;;;;;;7.35;3.38;;;5.50;99.90;;;;;;5073766;28;20047;-74
2022/01/15 07:31:52;;;;;;;6.20;3.58;;;5.50;99.90;;;;;;5074833;28;20643;-74
2022/01/15 07:34:19;;;;;;;9.65;3.60;;;5.50;99.90;;;;;;5075383;28;20055;-73
2022/01/15 07:36:51;;;;;;;7.28;3.25;;;5.50;99.90;;;;;;5075676;28;20083;-74
2022/01/15 07:39:16;;;;;;;6.50;3.30;;;5.40;99.90;;;;;;5063808;28;20111;-74
2022/01/15 07:41:42;;;;;;;5.45;3.10;;;5.40;99.90;;;;;;5055871;28;20040;-74
2022/01/15 07:44:08;;;;;;;6.53;3.00;;;5.50;99.90;;;;;;5075576;28;20115;-73
2022/01/15 07:46:34;;;;;;;5.07;2.83;;;5.40;99.90;;;;;;5074884;28;20170;-73
2022/01/15 07:48:59;;;;;;;5.93;2.95;;;5.40;99.90;;;;;;5074878;28;20044;-73
2022/01/15 07:51:25;;;;;;;5.63;3.20;;;5.50;99.90;;;;;;5075728;28;20048;-74
2022/01/15 07:53:50;;;;;;;3.75;2.67;;;5.40;99.90;;;;;;5074222;28;20047;-73
2022/01/15 07:56:16;;;;;;;5.68;2.75;;;5.40;99.90;;;;;;5044016;28;20072;-72
2022/01/15 07:58:42;;;;;;;4.80;3.08;;;5.40;99.90;;;;;;5057025;28;20048;-73
2022/01/15 08:01:07;;;;;;;5.85;3.05;;;5.50;99.90;;;;;;5093109;28;20507;-73
2022/01/15 08:03:33;;;;;;;6.28;3.40;;;5.50;99.90;;;;;;5074569;28;20063;-74
2022/01/15 08:05:58;;;;;;;5.38;2.90;;;5.40;99.90;;;;;;5074064;28;20484;-73
2022/01/15 08:08:24;;;;;;;5.45;3.13;;;5.40;99.90;;;;;;5074847;28;20056;-74
2022/01/15 08:10:49;;;;;;;5.07;3.10;;;5.40;99.90;;;;;;5074317;28;20043;-74
2022/01/15 08:13:16;;;;;;;7.22;4.00;;;5.40;99.90;;;;;;5073894;28;20052;-73
2022/01/15 08:15:42;;;;;;;9.57;4.95;;;5.40;99.90;;;;;;5058054;28;20114;-74
2022/01/15 08:18:07;;;;;;;10.52;5.70;;;5.40;99.90;;;;;;5075004;28;20056;-73
2022/01/15 08:20:33;;;;;;;13.75;6.30;;;5.40;99.90;;;;;;5056245;28;20113;-73
2022/01/15 08:22:59;;;;;;;10.68;6.68;;;5.40;99.90;;;;;;5057660;28;20139;-72
2022/01/15 08:25:25;;;;;;;14.65;7.38;;;5.30;99.90;;;;;;5073547;28;20101;-74
2022/01/15 08:27:52;;;;;;;15.00;7.82;;;5.40;99.90;;;;;;5073398;28;20097;-74
2022/01/15 08:30:18;;;;;;;13.93;8.93;;;5.40;99.90;;;;;;5066911;28;20047;-74
2022/01/15 08:32:44;;;;;;;13.27;7.85;;;5.30;99.90;;;;;;5074504;28;20098;-74
2022/01/15 08:35:10;;;;;;;11.68;7.72;;;5.30;99.90;;;;;;5073622;28;20456;-74
2022/01/15 08:37:39;;;;;;;11.98;7.70;;;5.30;99.90;;;;;;5074569;28;20044;-74
2022/01/15 08:40:07;;;;;;;12.02;7.32;;;5.30;99.90;;;;;;5074010;28;20480;-73
2022/01/15 08:42:34;;;;;;;13.95;8.13;;;5.30;99.90;;;;;;5053835;28;20052;-72
2022/01/15 08:45:00;;;;;;;12.88;8.02;;;5.30;99.90;;;;;;5059719;28;20048;-76
2022/01/15 08:47:25;;;;;;;13.35;8.13;;;5.30;99.90;;;;;;5073715;28;20389;-74
2022/01/15 08:49:51;;;;;;;15.23;9.30;;;5.30;99.90;;;;;;5073045;28;20535;-74
2022/01/15 08:52:17;;;;;;;13.88;8.63;;;5.30;99.90;;;;;;5074265;28;20381;-71
2022/01/15 08:54:43;;;;;;;21.65;10.95;;;5.30;99.90;;;;;;5073972;28;20055;-75
2022/01/15 08:57:10;;;;;;;20.48;12.65;;;5.30;99.90;;;;;;5072254;28;20044;-75
2022/01/15 08:59:36;;;;;;;19.35;12.13;;;5.30;99.90;;;;;;5069346;28;20127;-73
2022/01/15 09:02:02;;;;;;;18.00;11.98;;;5.30;99.90;;;;;;5073294;28;20115;-74
2022/01/15 09:04:28;;;;;;;20.63;12.57;;;5.20;99.90;;;;;;5073563;28;20100;-73
2022/01/15 09:06:54;;;;;;;20.50;12.57;;;5.20;99.90;;;;;;5068940;28;20396;-73
2022/01/15 09:09:20;;;;;;;25.45;14.23;;;5.20;99.90;;;;;;5073185;28;20043;-73
2022/01/15 09:11:45;;;;;;;20.33;11.52;;;5.30;99.90;;;;;;5073401;28;20393;-74
2022/01/15 09:14:12;;;;;;;19.05;11.35;;;5.30;99.90;;;;;;5072144;28;20456;-74
2022/01/15 09:16:38;;;;;;;21.27;12.10;;;5.30;99.90;;;;;;5072123;28;20040;-74
2022/01/15 09:19:04;;;;;;;18.00;11.38;;;5.30;99.90;;;;;;5073014;28;20044;-73
2022/01/15 09:21:30;;;;;;;19.27;12.30;;;5.20;99.90;;;;;;5055449;28;20052;-74
2022/01/15 09:23:56;;;;;;;20.92;13.18;;;5.20;99.90;;;;;;5090160;28;20098;-73
2022/01/15 09:26:35;;;;;;;22.13;12.70;;;5.30;99.90;;;;;;5092036;28;20044;-74
2022/01/15 09:31:44;;;;;;;25.08;13.57;;;5.30;99.90;;;;;;5069866;28;20056;-74
2022/01/15 09:34:10;;;;;;;19.55;11.55;;;5.30;99.90;;;;;;5054882;28;20050;-74
2022/01/15 09:36:35;;;;;;;19.85;12.55;;;5.30;99.90;;;;;;5056903;28;20043;-74
2022/01/15 09:39:01;;;;;;;21.42;13.60;;;5.30;99.90;;;;;;5072128;28;20108;-71
2022/01/15 09:41:29;;;;;;;22.45;12.27;;;5.30;99.90;;;;;;5069547;28;20040;-71
2022/01/15 09:43:55;;;;;;;17.58;10.80;;;5.30;99.90;;;;;;5065207;28;21590;-70
2022/01/15 09:46:21;;;;;;;18.40;11.45;;;5.20;99.90;;;;;;5069872;28;20056;-74
2022/01/15 09:48:48;;;;;;;19.60;12.05;;;5.20;99.90;;;;;;5073534;28;20476;-73
2022/01/15 09:51:14;;;;;;;19.00;11.32;;;5.20;99.90;;;;;;5070367;28;20128;-74
2022/01/15 09:53:41;;;;;;;15.30;10.93;;;5.20;99.90;;;;;;5071637;28;20123;-73
2022/01/15 09:56:07;;;;;;;20.13;11.30;;;5.20;99.90;;;;;;5081768;28;20040;-71
2022/01/15 09:58:33;;;;;;;15.75;10.18;;;5.20;99.90;;;;;;5087771;28;20120;-74
2022/01/15 10:00:59;;;;;;;14.80;10.05;;;5.20;99.90;;;;;;5078793;28;20048;-73
2022/01/15 10:03:25;;;;;;;14.55;9.75;;;5.20;99.90;;;;;;5079070;28;20543;-71
2022/01/15 10:05:50;;;;;;;13.40;8.80;;;5.30;99.90;;;;;;5088735;28;20123;-71
2022/01/15 10:08:20;;;;;;;10.98;7.70;;;5.30;99.90;;;;;;5072395;28;20048;-71
2022/01/15 10:10:53;;;;;;;11.18;7.68;;;5.20;99.90;;;;;;5041821;28;20052;-73
2022/01/15 10:13:24;;;;;;;10.63;7.10;;;5.30;99.90;;;;;;5069323;28;20055;-73
2022/01/15 10:16:10;;;;;;;12.10;7.35;;;5.20;99.90;;;;;;5069060;28;20036;-74
2022/01/15 10:18:44;;;;;;;12.43;7.65;;;5.30;99.90;;;;;;5069056;28;20173;-74
2022/01/15 10:21:12;;;;;;;9.88;7.40;;;5.30;99.90;;;;;;5071935;28;20043;-74
2022/01/15 10:23:52;;;;;;;9.23;7.07;;;5.30;99.90;;;;;;5073068;28;20126;-71
2022/01/15 10:26:32;;;;;;;9.88;7.68;;;5.30;99.90;;;;;;5071200;28;20048;-73
2022/01/15 10:29:06;;;;;;;8.60;7.53;;;5.20;99.90;;;;;;5070897;28;20089;-74
2022/01/15 10:31:39;;;;;;;9.93;8.07;;;5.20;99.90;;;;;;5070343;28;20112;-74
2022/01/15 10:34:25;;;;;;;12.10;9.38;;;5.30;99.90;;;;;;5037107;28;20051;-73
2022/01/15 10:36:50;;;;;;;10.82;8.38;;;5.20;99.90;;;;;;5050655;28;20044;-74
2022/01/15 10:39:20;;;;;;;12.70;9.55;;;5.20;99.90;;;;;;5072269;28;20370;-76
2022/01/15 10:41:47;;;;;;;12.15;9.65;;;5.30;99.90;;;;;;5071891;28;20500;-70
2022/01/15 10:44:33;;;;;;;12.05;9.23;;;5.20;99.90;;;;;;5054046;28;20044;-74
2022/01/15 10:47:06;;;;;;;15.98;11.27;;;5.30;99.90;;;;;;5064242;28;20071;-74
2022/01/15 10:49:33;;;;;;;19.13;11.32;;;5.20;99.90;;;;;;5069658;28;20386;-74
2022/01/15 10:52:22;;;;;;;14.30;11.73;;;5.20;99.90;;;;;;5056224;28;20543;-75
2022/01/15 10:55:10;;;;;;;16.45;11.82;;;5.30;99.90;;;;;;5071320;28;20044;-77
2022/01/15 10:57:39;;;;;;;16.73;12.35;;;5.30;99.90;;;;;;5071618;28;20037;-72
2022/01/15 11:00:20;;;;;;;15.90;12.32;;;5.30;99.90;;;;;;5052639;28;20053;-72
2022/01/15 11:02:59;;;;;;;17.42;12.68;;;5.30;99.90;;;;;;5057823;28;20122;-75
2022/01/15 11:05:33;;;;;;;16.95;13.05;;;5.30;99.90;;;;;;5059391;28;20043;-75
2022/01/15 11:08:28;;;;;;;15.65;12.45;;;5.40;99.90;;;;;;5069256;28;20504;-75
2022/01/15 11:11:00;;;;;;;16.70;12.57;;;5.40;99.90;;;;;;5076012;28;20047;-76
2022/01/15 11:13:28;;;;;;;17.45;12.40;;;5.40;99.90;;;;;;5075206;28;20048;-71
2022/01/15 11:16:00;;;;;;;16.92;13.55;;;5.40;99.90;;;;;;5068945;28;20042;-76
2022/01/15 11:18:28;;;;;;;19.25;13.88;;;5.30;99.90;;;;;;5076340;28;20076;-75
2022/01/15 11:20:58;;;;;;;15.60;13.10;;;5.30;99.90;;;;;;5071984;28;20400;-76
2022/01/15 11:23:27;;;;;;;17.75;13.48;;;5.30;99.90;;;;;;5063126;28;20044;-75
2022/01/15 11:25:55;;;;;;;14.60;11.77;;;5.30;99.90;;;;;;5061371;28;20059;-75
2022/01/15 11:28:23;;;;;;;18.05;13.73;;;5.30;99.90;;;;;;5075207;28;20052;-76
2022/01/15 11:30:52;;;;;;;18.13;13.52;;;5.30;99.90;;;;;;5059140;28;20411;-72
2022/01/15 11:33:22;;;;;;;16.90;13.43;;;5.30;99.90;;;;;;5075323;28;20048;-74
2022/01/15 11:35:48;;;;;;;21.92;15.23;;;5.30;99.90;;;;;;5075031;28;20557;-75
2022/01/15 11:38:36;;;;;;;17.33;13.77;;;5.30;99.90;;;;;;5075067;28;20518;-76
2022/01/15 11:41:01;;;;;;;18.63;14.38;;;5.30;99.90;;;;;;5074614;28;20071;-72
2022/01/15 11:43:28;;;;;;;18.10;14.00;;;5.30;99.90;;;;;;5074841;28;20492;-72
2022/01/15 11:45:56;;;;;;;18.83;14.73;;;5.30;99.90;;;;;;5058426;28;20040;-76
2022/01/15 11:48:25;;;;;;;21.80;15.27;;;5.40;99.90;;;;;;5071714;28;20063;-76
2022/01/15 11:51:13;;;;;;;19.40;14.95;;;5.30;99.90;;;;;;5070003;28;20489;-75
2022/01/15 11:53:54;;;;;;;18.20;14.65;;;5.30;99.90;;;;;;5071897;28;20052;-74
2022/01/15 11:56:25;;;;;;;19.65;13.68;;;5.40;99.90;;;;;;5071177;28;20121;-75
2022/01/15 11:58:52;;;;;;;19.77;13.68;;;5.40;99.90;;;;;;5071451;28;20503;-75
2022/01/15 12:01:38;;;;;;;18.80;14.15;;;5.30;99.90;;;;;;5071560;28;20045;-72
2022/01/15 12:04:34;;;;;;;20.45;14.30;;;5.30;99.90;;;;;;5070730;28;20048;-76
2022/01/15 12:07:05;;;;;;;20.38;13.63;;;5.30;99.90;;;;;;5069574;28;20063;-74
2022/01/15 12:09:32;;;;;;;23.70;15.40;;;5.30;99.90;;;;;;5071493;28;20122;-71
2022/01/15 12:11:57;;;;;;;23.75;15.02;;;5.20;99.90;;;;;;5054782;28;20182;-75
2022/01/15 12:14:49;;;;;;;21.52;14.70;;;5.20;99.90;;;;;;5071481;28;20509;-74
2022/01/15 12:17:35;;;;;;;23.98;13.88;;;5.20;99.90;;;;;;5070598;28;20059;-75
2022/01/15 12:20:31;;;;;;;26.90;14.70;;;5.20;99.90;;;;;;5051855;28;20481;-75
2022/01/15 12:23:02;;;;;;;25.63;14.88;;;5.10;99.90;;;;;;5054132;28;20045;-71
2022/01/15 12:25:30;;;;;;;26.77;15.10;;;5.10;99.90;;;;;;5072431;28;20052;-75
2022/01/15 12:28:09;;;;;;;25.88;16.63;;;5.10;99.90;;;;;;5067692;28;20040;-72
2022/01/15 12:30:36;;;;;;;31.90;16.10;;;5.20;99.90;;;;;;5073189;28;20136;-75
2022/01/15 12:33:07;;;;;;;31.63;16.58;;;5.10;99.90;;;;;;5070460;28;20098;-75
2022/01/15 12:35:35;;;;;;;28.83;15.93;;;5.10;99.90;;;;;;5072838;28;20045;-75
2022/01/15 12:38:02;;;;;;;28.20;16.08;;;5.20;99.90;;;;;;5070954;28;20097;-75
2022/01/15 12:40:49;;;;;;;28.42;15.30;;;5.10;99.90;;;;;;5054111;28;20041;-75
2022/01/15 12:43:25;;;;;;;28.58;17.73;;;5.20;99.90;;;;;;5071285;28;20063;-75
2022/01/15 12:45:54;;;;;;;33.03;17.20;;;5.20;99.90;;;;;;5063329;28;20073;-75
2022/01/15 12:48:23;;;;;;;26.80;16.38;;;5.20;99.90;;;;;;5053602;28;20103;-75
2022/01/15 12:50:54;;;;;;;26.33;15.80;;;5.20;99.90;;;;;;5071230;28;20103;-75
2022/01/15 12:53:33;;;;;;;28.08;16.17;;;5.20;99.90;;;;;;5053440;28;20117;-75
2022/01/15 12:55:59;;;;;;;29.27;16.70;;;5.20;99.90;;;;;;5071251;28;20048;-75
2022/01/15 12:58:28;;;;;;;29.17;16.70;;;5.20;99.90;;;;;;5069177;28;20047;-75
2022/01/15 13:00:54;;;;;;;30.38;16.77;;;5.20;99.90;;;;;;5087311;28;20151;-75
2022/01/15 13:03:22;;;;;;;28.52;16.15;;;5.20;99.90;;;;;;5070791;28;20048;-75
2022/01/15 13:05:54;;;;;;;29.63;15.85;;;5.10;99.90;;;;;;5070819;28;20052;-74
2022/01/15 13:08:28;;;;;;;28.38;17.35;;;5.20;99.90;;;;;;5056229;28;20041;-75
2022/01/15 13:10:58;;;;;;;32.95;17.30;;;5.20;99.90;;;;;;5052506;28;20049;-75
2022/01/15 13:13:30;;;;;;;29.27;17.08;;;5.10;99.90;;;;;;5069602;28;20066;-75